createdAt,value
2023-06-29T00:00:02.209Z,18
2023-06-29T00:01:02.248Z,17.7
2023-06-29T00:02:01.414Z,17.8
2023-06-29T00:03:01.442Z,17.5
2023-06-29T00:04:01.408Z,17.9
2023-06-29T00:05:01.498Z,17.7
2023-06-29T00:06:01.373Z,17.9
2023-06-29T00:07:01.362Z,18
2023-06-29T00:08:01.277Z,17.6
2023-06-29T00:09:02.278Z,17.6
2023-06-29T00:10:02.223Z,17.3
2023-06-29T00:11:02.208Z,17.3
2023-06-29T00:12:02.185Z,17.7
2023-06-29T00:13:02.131Z,17.7
2023-06-29T00:14:02.030Z,17.6
2023-06-29T00:15:02.007Z,17.6
2023-06-29T00:16:01.957Z,17.9
2023-06-29T00:17:02.101Z,18.1
2023-06-29T00:18:02.122Z,17.8
2023-06-29T00:19:02.052Z,17.8
2023-06-29T00:20:02.084Z,17.5
2023-06-29T00:21:01.991Z,17.4
2023-06-29T00:22:01.893Z,17.2
2023-06-29T00:23:01.856Z,17.6
2023-06-29T00:24:01.857Z,18
2023-06-29T00:25:01.779Z,17.3
2023-06-29T00:26:01.770Z,17.3
2023-06-29T00:27:01.675Z,17.4
2023-06-29T00:28:01.672Z,17.2
2023-06-29T00:29:01.572Z,18
2023-06-29T00:30:01.507Z,17.5
2023-06-29T00:31:01.451Z,17.2
2023-06-29T00:32:01.624Z,17.3
2023-06-29T00:33:01.640Z,17.3
2023-06-29T00:34:01.527Z,17.5
2023-06-29T00:35:01.460Z,17.2
2023-06-29T00:36:01.394Z,17.8
2023-06-29T00:37:01.322Z,17.9
2023-06-29T00:38:02.291Z,18
2023-06-29T00:39:02.192Z,17.5
2023-06-29T00:40:02.203Z,17.6
2023-06-29T00:41:02.127Z,18.1
2023-06-29T00:42:02.098Z,18.2
2023-06-29T00:43:02.033Z,18.1
2023-06-29T00:44:01.989Z,18.2
2023-06-29T00:45:01.984Z,18
2023-06-29T00:46:01.872Z,18.1
2023-06-29T00:47:02.048Z,18.1
2023-06-29T00:48:01.998Z,18.1
2023-06-29T00:49:01.870Z,17.6
2023-06-29T00:50:01.817Z,17.6
2023-06-29T00:51:01.773Z,17.7
2023-06-29T00:52:01.729Z,17.9
2023-06-29T00:53:01.680Z,17.4
2023-06-29T00:54:01.628Z,17.4
2023-06-29T00:55:01.612Z,17.5
2023-06-29T00:56:01.506Z,17.5
2023-06-29T00:57:01.497Z,17.2
2023-06-29T00:58:01.417Z,17.2
2023-06-29T00:59:01.356Z,17.9
2023-06-29T01:00:02.456Z,17.9
2023-06-29T01:01:01.393Z,17.5
2023-06-29T01:02:01.348Z,17.7
2023-06-29T01:03:01.496Z,17.7
2023-06-29T01:04:01.616Z,17.6
2023-06-29T01:05:01.677Z,17.6
2023-06-29T01:06:01.575Z,17.8
2023-06-29T01:07:01.599Z,17.6
2023-06-29T01:08:01.471Z,17.9
2023-06-29T01:09:01.420Z,17.8
2023-06-29T01:10:01.374Z,18.4
2023-06-29T01:11:01.334Z,17.8
2023-06-29T01:12:01.297Z,17.7
2023-06-29T01:13:02.281Z,18.1
2023-06-29T01:14:02.220Z,17.7
2023-06-29T01:15:02.221Z,17.5
2023-06-29T01:16:02.115Z,17.6
2023-06-29T01:17:02.052Z,18
2023-06-29T01:18:02.071Z,18.3
2023-06-29T01:19:01.978Z,18.7
2023-06-29T01:20:01.908Z,18.5
2023-06-29T01:21:01.933Z,18.3
2023-06-29T01:22:01.860Z,18.4
2023-06-29T01:23:01.343Z,18.1
2023-06-29T01:24:01.326Z,17.6
2023-06-29T01:25:02.278Z,18.3
2023-06-29T01:26:02.263Z,18.1
2023-06-29T01:27:02.221Z,18.5
2023-06-29T01:28:02.166Z,18.7
2023-06-29T01:29:02.119Z,18.7
2023-06-29T01:30:02.092Z,18.6
2023-06-29T01:31:02.177Z,18.3
2023-06-29T01:32:02.124Z,18.4
2023-06-29T01:33:02.028Z,18
2023-06-29T01:34:01.945Z,18.4
2023-06-29T01:35:01.861Z,18.6
2023-06-29T01:36:01.804Z,18.4
2023-06-29T01:37:01.780Z,18.3
2023-06-29T01:38:01.750Z,18.7
2023-06-29T01:39:01.694Z,18.8
2023-06-29T01:40:01.687Z,18.8
2023-06-29T01:41:01.600Z,18.6
2023-06-29T01:42:01.598Z,18.8
2023-06-29T01:43:01.514Z,18.5
2023-06-29T01:44:01.446Z,18.3
2023-06-29T01:45:01.376Z,18.1
2023-06-29T01:46:01.365Z,18.1
2023-06-29T01:47:01.320Z,17.7
2023-06-29T01:48:01.385Z,18.3
2023-06-29T01:49:02.296Z,18.1
2023-06-29T01:50:02.256Z,18.3
2023-06-29T01:51:02.231Z,18.7
2023-06-29T01:52:02.136Z,18.3
2023-06-29T01:53:02.123Z,18.3
2023-06-29T01:54:02.061Z,18.5
2023-06-29T01:55:02.060Z,18.5
2023-06-29T01:56:01.972Z,18.6
2023-06-29T01:57:01.925Z,18.4
2023-06-29T01:58:01.924Z,18.7
2023-06-29T01:59:01.866Z,17.9
2023-06-29T02:00:01.900Z,18.3
2023-06-29T02:01:01.894Z,18.2
2023-06-29T02:02:01.777Z,18
2023-06-29T02:03:01.767Z,18.2
2023-06-29T02:04:01.741Z,18.4
2023-06-29T02:05:01.598Z,18.1
2023-06-29T02:06:01.634Z,18.3
2023-06-29T02:07:01.553Z,18.7
2023-06-29T02:08:01.525Z,18.5
2023-06-29T02:09:01.419Z,18
2023-06-29T02:10:01.366Z,18.1
2023-06-29T02:11:01.322Z,18.3
2023-06-29T02:12:01.358Z,18.5
2023-06-29T02:13:02.274Z,18.1
2023-06-29T02:14:02.226Z,18.5
2023-06-29T02:15:02.227Z,17.8
2023-06-29T02:16:02.179Z,18.1
2023-06-29T02:17:01.339Z,18.2
2023-06-29T02:18:01.353Z,18.1
2023-06-29T02:19:02.301Z,18.1
2023-06-29T02:20:02.225Z,18
2023-06-29T02:21:02.213Z,17.7
2023-06-29T02:22:02.152Z,18.1
2023-06-29T02:23:02.151Z,18.2
2023-06-29T02:24:02.018Z,18.2
2023-06-29T02:25:02.019Z,18.3
2023-06-29T02:26:01.965Z,18.4
2023-06-29T02:27:01.909Z,18.7
2023-06-29T02:28:01.921Z,18.7
2023-06-29T02:29:01.882Z,18.3
2023-06-29T02:30:01.790Z,17.7
2023-06-29T02:31:01.848Z,17.7
2023-06-29T02:32:01.568Z,18.2
2023-06-29T02:33:01.708Z,17.7
2023-06-29T02:34:01.540Z,18.1
2023-06-29T02:35:01.524Z,18.6
2023-06-29T02:36:01.400Z,18
2023-06-29T02:37:01.463Z,17.4
2023-06-29T02:38:01.326Z,17.6
2023-06-29T02:39:02.322Z,17.7
2023-06-29T02:40:02.275Z,17.3
2023-06-29T02:41:02.238Z,17.5
2023-06-29T02:42:02.127Z,17.9
2023-06-29T02:43:02.203Z,18.1
2023-06-29T02:44:02.038Z,17.8
2023-06-29T02:45:02.106Z,17.7
2023-06-29T02:46:01.991Z,18
2023-06-29T02:47:01.861Z,17.6
2023-06-29T02:48:01.911Z,17.4
2023-06-29T02:49:01.830Z,17.7
2023-06-29T02:50:01.807Z,18
2023-06-29T02:51:01.853Z,17.9
2023-06-29T02:52:01.720Z,17.3
2023-06-29T02:53:01.745Z,16.9
2023-06-29T02:54:01.637Z,17.5
2023-06-29T02:55:01.641Z,18
2023-06-29T02:56:01.484Z,17.9
2023-06-29T02:57:01.488Z,17.8
2023-06-29T02:58:01.344Z,18.1
2023-06-29T02:59:01.400Z,17.6
2023-06-29T03:00:02.877Z,17.5
2023-06-29T03:01:01.695Z,18
2023-06-29T03:02:01.356Z,17.8
2023-06-29T03:03:01.497Z,18
2023-06-29T03:04:01.712Z,18.2
2023-06-29T03:05:01.719Z,17.5
2023-06-29T03:06:01.583Z,17.8
2023-06-29T03:07:01.648Z,17.4
2023-06-29T03:08:01.471Z,17.8
2023-06-29T03:09:01.465Z,17.8
2023-06-29T03:10:01.343Z,17.9
2023-06-29T03:11:01.436Z,17.6
2023-06-29T03:12:01.351Z,17.8
2023-06-29T03:13:01.419Z,18
2023-06-29T03:14:02.369Z,18.1
2023-06-29T03:15:02.240Z,18.1
2023-06-29T03:16:02.342Z,18.4
2023-06-29T03:17:02.174Z,17.9
2023-06-29T03:18:02.220Z,17.8
2023-06-29T03:19:02.044Z,17.5
2023-06-29T03:20:02.110Z,17.7
2023-06-29T03:21:05.546Z,18
2023-06-29T03:22:02.210Z,17.8
2023-06-29T03:23:02.256Z,17.8
2023-06-29T03:24:02.126Z,17.9
2023-06-29T03:25:02.198Z,18
2023-06-29T03:26:02.056Z,18
2023-06-29T03:27:02.117Z,18.3
2023-06-29T03:28:01.983Z,18.3
2023-06-29T03:29:01.951Z,18.4
2023-06-29T03:30:02.000Z,18.4
2023-06-29T03:31:02.010Z,18.7
2023-06-29T03:32:01.971Z,18.6
2023-06-29T03:33:02.012Z,18.7
2023-06-29T03:34:01.946Z,18.6
2023-06-29T03:35:01.882Z,18.6
2023-06-29T03:36:01.942Z,18.5
2023-06-29T03:37:01.809Z,18.6
2023-06-29T03:38:01.780Z,18.7
2023-06-29T03:39:01.865Z,18.9
2023-06-29T03:40:01.691Z,18.3
2023-06-29T03:41:01.702Z,18.6
2023-06-29T03:42:01.657Z,18.3
2023-06-29T03:43:01.916Z,17.9
2023-06-29T03:44:01.996Z,17.7
2023-06-29T03:45:01.879Z,18.5
2023-06-29T03:46:01.777Z,18.7
2023-06-29T03:47:01.567Z,18.7
2023-06-29T03:48:01.679Z,18.6
2023-06-29T03:49:01.549Z,18.4
2023-06-29T03:50:01.563Z,18.5
2023-06-29T03:51:01.416Z,18.8
2023-06-29T03:52:01.455Z,18.1
2023-06-29T03:53:01.296Z,18.3
2023-06-29T03:54:02.387Z,18.2
2023-06-29T03:55:02.278Z,18.2
2023-06-29T03:56:02.272Z,18.3
2023-06-29T03:57:02.170Z,18.6
2023-06-29T03:58:02.221Z,18.9
2023-06-29T03:59:02.099Z,18.5
2023-06-29T04:00:02.892Z,18.4
2023-06-29T04:01:01.730Z,18.4
2023-06-29T04:02:01.739Z,18.4
2023-06-29T04:03:01.847Z,18.3
2023-06-29T04:04:01.899Z,18.3
2023-06-29T04:05:01.966Z,18.2
2023-06-29T04:06:02.045Z,18.4
2023-06-29T04:07:01.928Z,18.1
2023-06-29T04:08:01.879Z,18.1
2023-06-29T04:09:01.936Z,18.5
2023-06-29T04:10:01.778Z,17.7
2023-06-29T04:11:01.736Z,17.7
2023-06-29T04:12:01.779Z,17.6
2023-06-29T04:13:01.693Z,17.8
2023-06-29T04:14:01.728Z,17.6
2023-06-29T04:15:01.622Z,17.7
2023-06-29T04:16:01.634Z,18.1
2023-06-29T04:17:01.370Z,17.9
2023-06-29T04:18:01.457Z,18
2023-06-29T04:19:01.344Z,18.4
2023-06-29T04:20:01.392Z,18.3
2023-06-29T04:21:02.283Z,17.7
2023-06-29T04:22:02.181Z,17.7
2023-06-29T04:23:02.246Z,17.6
2023-06-29T04:24:02.113Z,18.3
2023-06-29T04:25:02.149Z,18.3
2023-06-29T04:26:02.042Z,17.7
2023-06-29T04:27:02.109Z,18.1
2023-06-29T04:28:01.947Z,18.5
2023-06-29T04:29:01.912Z,18.1
2023-06-29T04:30:01.986Z,18
2023-06-29T04:31:01.854Z,17.9
2023-06-29T04:32:01.872Z,17.9
2023-06-29T04:33:01.843Z,18
2023-06-29T04:34:01.745Z,17.9
2023-06-29T04:35:01.784Z,17.7
2023-06-29T04:36:01.613Z,18
2023-06-29T04:37:01.608Z,18.1
2023-06-29T04:38:01.521Z,18.1
2023-06-29T04:39:01.635Z,17.8
2023-06-29T04:40:01.439Z,18.1
2023-06-29T04:41:01.494Z,18.3
2023-06-29T04:42:01.334Z,18
2023-06-29T04:43:01.335Z,18.2
2023-06-29T04:44:02.308Z,18.5
2023-06-29T04:45:02.223Z,18.3
2023-06-29T04:46:02.396Z,18.3
2023-06-29T04:47:02.246Z,18.3
2023-06-29T04:48:02.292Z,18
2023-06-29T04:49:02.150Z,18
2023-06-29T04:50:02.221Z,18.1
2023-06-29T04:51:02.141Z,17.7
2023-06-29T04:52:02.141Z,18.3
2023-06-29T04:53:01.996Z,18.2
2023-06-29T04:54:01.945Z,17.9
2023-06-29T04:55:02.015Z,18
2023-06-29T04:56:01.832Z,18.1
2023-06-29T04:57:01.779Z,17.9
2023-06-29T04:58:01.837Z,17.7
2023-06-29T04:59:01.684Z,18.3
2023-06-29T05:00:03.431Z,18
2023-06-29T05:01:01.317Z,17.8
2023-06-29T05:02:01.678Z,17.9
2023-06-29T05:03:01.861Z,17.9
2023-06-29T05:04:02.986Z,18.2
2023-06-29T05:05:02.127Z,18.3
2023-06-29T05:06:02.163Z,17.9
2023-06-29T05:07:02.044Z,18.5
2023-06-29T05:08:02.091Z,18.4
2023-06-29T05:09:02.043Z,18.2
2023-06-29T05:10:01.887Z,18
2023-06-29T05:11:01.938Z,18.3
2023-06-29T05:12:01.809Z,18.3
2023-06-29T05:13:01.778Z,18.1
2023-06-29T05:14:01.841Z,18.5
2023-06-29T05:15:01.693Z,18.4
2023-06-29T05:16:01.687Z,18.7
2023-06-29T05:17:01.643Z,18.6
2023-06-29T05:18:01.595Z,18.8
2023-06-29T05:19:01.461Z,18.4
2023-06-29T05:20:01.467Z,18.3
2023-06-29T05:21:01.310Z,18.6
2023-06-29T05:22:02.328Z,18.5
2023-06-29T05:23:02.250Z,18.3
2023-06-29T05:24:02.289Z,18.7
2023-06-29T05:25:02.257Z,18.3
2023-06-29T05:26:02.100Z,18.5
2023-06-29T05:27:02.011Z,18.4
2023-06-29T05:28:02.076Z,18.2
2023-06-29T05:29:05.533Z,18.1
2023-06-29T05:30:02.168Z,18.4
2023-06-29T05:31:02.269Z,18.2
2023-06-29T05:32:01.366Z,18.4
2023-06-29T05:33:02.347Z,18.3
2023-06-29T05:34:02.227Z,18.3
2023-06-29T05:35:02.257Z,18.1
2023-06-29T05:36:02.172Z,18.3
2023-06-29T05:37:02.266Z,18.1
2023-06-29T05:38:02.111Z,18.1
2023-06-29T05:39:02.165Z,18.1
2023-06-29T05:40:02.042Z,18.3
2023-06-29T05:41:03.141Z,18
2023-06-29T05:42:02.286Z,18.1
2023-06-29T05:43:02.300Z,18.1
2023-06-29T05:44:02.224Z,18.3
2023-06-29T05:45:02.089Z,18.4
2023-06-29T05:46:02.174Z,18.1
2023-06-29T05:47:01.962Z,18
2023-06-29T05:48:02.042Z,17.9
2023-06-29T05:49:01.990Z,18
2023-06-29T05:50:01.886Z,17.9
2023-06-29T05:51:01.869Z,17.8
2023-06-29T05:52:01.776Z,18
2023-06-29T05:53:01.759Z,17.9
2023-06-29T05:54:01.810Z,17.8
2023-06-29T05:55:01.648Z,17.8
2023-06-29T05:56:01.671Z,18.3
2023-06-29T05:57:01.554Z,18
2023-06-29T05:58:01.639Z,18.2
2023-06-29T05:59:01.462Z,18.3
2023-06-29T06:00:02.170Z,18.2
2023-06-29T06:01:02.531Z,18
2023-06-29T06:02:01.775Z,17.9
2023-06-29T06:03:01.863Z,18.1
2023-06-29T06:04:01.890Z,18.4
2023-06-29T06:05:01.772Z,18.4
2023-06-29T06:06:01.818Z,18.2
2023-06-29T06:07:01.711Z,18.3
2023-06-29T06:08:01.760Z,18.3
2023-06-29T06:09:01.592Z,18.2
2023-06-29T06:10:01.611Z,18
2023-06-29T06:11:01.481Z,18.1
2023-06-29T06:12:01.503Z,18.1
2023-06-29T06:13:01.357Z,18
2023-06-29T06:14:01.360Z,17.8
2023-06-29T06:15:01.306Z,18
2023-06-29T06:16:02.386Z,18.4
2023-06-29T06:17:02.132Z,17.6
2023-06-29T06:18:02.203Z,18.3
2023-06-29T06:19:02.030Z,18.3
2023-06-29T06:20:02.052Z,18
2023-06-29T06:21:01.937Z,18
2023-06-29T06:22:01.905Z,17.8
2023-06-29T06:23:01.961Z,18.1
2023-06-29T06:24:01.814Z,18
2023-06-29T06:25:01.732Z,18.8
2023-06-29T06:26:01.761Z,18.6
2023-06-29T06:27:01.629Z,18.2
2023-06-29T06:28:01.758Z,18.5
2023-06-29T06:29:01.617Z,18.3
2023-06-29T06:30:01.717Z,18.1
2023-06-29T06:31:01.600Z,18.4
2023-06-29T06:32:01.787Z,18
2023-06-29T06:33:01.779Z,17.8
2023-06-29T06:34:01.693Z,18.4
2023-06-29T06:35:01.606Z,18.4
2023-06-29T06:36:01.510Z,18.5
2023-06-29T06:37:01.579Z,18.4
2023-06-29T06:38:01.382Z,18.4
2023-06-29T06:39:01.397Z,18.8
2023-06-29T06:40:02.323Z,18.4
2023-06-29T06:41:02.176Z,18.5
2023-06-29T06:42:02.232Z,18.4
2023-06-29T06:43:02.105Z,18.7
2023-06-29T06:44:02.174Z,18.4
2023-06-29T06:45:02.029Z,18.3
2023-06-29T06:46:02.001Z,18.4
2023-06-29T06:47:01.820Z,18.7
2023-06-29T06:48:01.835Z,18.3
2023-06-29T06:49:01.858Z,18.7
2023-06-29T06:50:01.716Z,18.6
2023-06-29T06:51:01.777Z,18.2
2023-06-29T06:52:01.636Z,18.1
2023-06-29T06:53:01.715Z,18.6
2023-06-29T06:54:01.572Z,18.6
2023-06-29T06:55:01.609Z,18.4
2023-06-29T06:56:01.447Z,18.4
2023-06-29T06:57:01.525Z,18.5
2023-06-29T06:58:01.367Z,18.5
2023-06-29T06:59:01.353Z,18.8
2023-06-29T07:00:02.298Z,18.5
2023-06-29T07:01:02.206Z,19
2023-06-29T07:02:02.259Z,19.2
2023-06-29T07:03:02.417Z,18.9
2023-06-29T07:04:02.155Z,18.6
2023-06-29T07:05:02.224Z,18.4
2023-06-29T07:06:02.112Z,18.2
2023-06-29T07:07:02.130Z,18.3
2023-06-29T07:08:02.034Z,18.4
2023-06-29T07:09:02.045Z,19
2023-06-29T07:10:01.960Z,18.9
2023-06-29T07:11:01.916Z,19
2023-06-29T07:12:01.969Z,18.7
2023-06-29T07:13:01.781Z,18.6
2023-06-29T07:14:01.682Z,18.7
2023-06-29T07:15:01.757Z,18.7
2023-06-29T07:16:01.632Z,19.1
2023-06-29T07:17:01.817Z,19
2023-06-29T07:18:02.028Z,19.1
2023-06-29T07:19:02.241Z,19.2
2023-06-29T07:24:06.979Z,19.1
2023-06-29T07:25:02.129Z,19.3
2023-06-29T07:26:02.175Z,19.1
2023-06-29T07:27:02.053Z,19
2023-06-29T07:28:02.067Z,19.1
2023-06-29T07:29:01.916Z,18.9
2023-06-29T07:30:01.866Z,18.8
2023-06-29T07:31:01.882Z,18.9
2023-06-29T07:32:01.878Z,19.1
2023-06-29T07:33:01.854Z,19.3
2023-06-29T07:34:01.888Z,19.2
2023-06-29T07:35:01.728Z,19.1
2023-06-29T07:36:01.768Z,18.9
2023-06-29T07:37:01.638Z,18.9
2023-06-29T07:38:01.534Z,18.3
2023-06-29T07:39:01.583Z,18.4
2023-06-29T07:40:01.508Z,18.7
2023-06-29T07:41:01.488Z,18.7
2023-06-29T07:42:01.361Z,18.6
2023-06-29T07:43:01.399Z,18.5
2023-06-29T07:44:02.337Z,18.6
2023-06-29T07:45:02.203Z,18.7
2023-06-29T07:46:02.252Z,18.5
2023-06-29T07:47:02.082Z,18.7
2023-06-29T07:48:02.193Z,18.4
2023-06-29T07:49:02.295Z,18.5
2023-06-29T07:50:02.151Z,18.6
2023-06-29T07:51:02.176Z,18.9
2023-06-29T07:52:02.068Z,19
2023-06-29T07:53:02.143Z,18.9
2023-06-29T07:54:01.972Z,19.1
2023-06-29T07:55:01.977Z,19
2023-06-29T07:56:01.890Z,18.9
2023-06-29T07:59:02.264Z,18.6
2023-06-29T08:00:02.271Z,18.9
2023-06-29T08:01:02.171Z,19.1
2023-06-29T08:02:01.421Z,19.2
2023-06-29T08:03:01.457Z,18.8
2023-06-29T08:04:03.436Z,19.4
2023-06-29T08:07:01.652Z,19.7
2023-06-29T08:08:01.881Z,19.7
2023-06-29T08:09:02.132Z,20
2023-06-29T08:10:01.459Z,19.6
2023-06-29T08:11:01.476Z,19.7
2023-06-29T08:12:01.314Z,19.3
2023-06-29T08:13:02.079Z,19.5
2023-06-29T08:14:01.640Z,19.4
2023-06-29T08:15:01.613Z,19.3
2023-06-29T08:16:01.558Z,19.3
2023-06-29T08:17:01.737Z,19.4
2023-06-29T08:18:02.236Z,19.7
2023-06-29T08:19:02.085Z,19.8
2023-06-29T08:20:02.415Z,19.7
2023-06-29T08:21:02.230Z,19.6
2023-06-29T08:22:02.271Z,19.5
2023-06-29T08:23:02.122Z,19.5
2023-06-29T08:24:02.124Z,19.4
2023-06-29T08:25:02.032Z,19.5
2023-06-29T08:26:02.104Z,19.6
2023-06-29T08:27:01.981Z,19.6
2023-06-29T08:28:01.936Z,19.7
2023-06-29T08:29:01.961Z,19.7
2023-06-29T08:30:01.864Z,19.7
2023-06-29T08:31:01.760Z,19.7
2023-06-29T08:32:01.403Z,19.7
2023-06-29T08:33:01.497Z,19.8
2023-06-29T08:34:01.453Z,19.7
2023-06-29T08:35:01.471Z,19.7
2023-06-29T08:36:01.337Z,19.7
2023-06-29T08:37:02.426Z,20.3
2023-06-29T08:38:02.228Z,20.3
2023-06-29T08:39:02.344Z,20.2
2023-06-29T08:40:02.225Z,20.1
2023-06-29T08:41:02.233Z,20.1
2023-06-29T08:42:03.756Z,20.3
2023-06-29T08:43:01.947Z,20.3
2023-06-29T08:44:02.003Z,20.2
2023-06-29T08:45:01.886Z,20.3
2023-06-29T08:46:01.839Z,20.3
2023-06-29T08:47:02.007Z,20.5
2023-06-29T08:48:02.135Z,20.7
2023-06-29T08:49:01.941Z,20.6
2023-06-29T08:50:01.896Z,20.4
2023-06-29T08:51:01.862Z,20.3
2023-06-29T08:52:01.788Z,19.9
2023-06-29T08:53:01.761Z,19.7
2023-06-29T08:54:01.739Z,19.6
2023-06-29T08:55:01.589Z,19.5
2023-06-29T08:56:01.604Z,19.8
2023-06-29T08:57:01.488Z,19.6
2023-06-29T08:58:01.449Z,19.4
2023-06-29T08:59:01.372Z,19.6
2023-06-29T09:00:01.727Z,19.6
2023-06-29T09:01:01.623Z,19.8
2023-06-29T09:02:01.386Z,19.7
2023-06-29T09:03:01.474Z,19.6
2023-06-29T09:04:01.443Z,19.6
2023-06-29T09:05:01.578Z,19.9
2023-06-29T09:06:01.377Z,19.7
2023-06-29T09:07:01.374Z,19.8
2023-06-29T09:08:02.411Z,20.1
2023-06-29T09:09:02.253Z,20.6
2023-06-29T09:10:02.284Z,20.5
2023-06-29T09:11:02.156Z,20.5
2023-06-29T09:12:02.218Z,20.5
2023-06-29T09:13:02.078Z,20.6
2023-06-29T09:14:02.147Z,20.7
2023-06-29T09:15:02.041Z,20.9
2023-06-29T09:16:02.181Z,21
2023-06-29T09:17:02.008Z,21.3
2023-06-29T09:18:01.981Z,21.6
2023-06-29T09:19:02.101Z,21.8
2023-06-29T09:20:01.907Z,21.6
2023-06-29T09:21:01.931Z,21.7
2023-06-29T09:22:02.004Z,21.9
2023-06-29T09:23:01.847Z,22.1
2023-06-29T09:24:01.806Z,22.1
2023-06-29T09:25:10.106Z,22.1
2023-06-29T09:26:02.005Z,22.4
2023-06-29T09:27:02.042Z,22
2023-06-29T09:28:01.943Z,21.7
2023-06-29T09:29:01.929Z,21.9
2023-06-29T09:30:01.882Z,22.2
2023-06-29T09:31:01.911Z,22.1
2023-06-29T09:32:01.634Z,22.1
2023-06-29T09:33:01.739Z,21.8
2023-06-29T09:34:01.572Z,21.9
2023-06-29T09:35:01.595Z,22
2023-06-29T09:36:01.436Z,22.1
2023-06-29T09:37:01.418Z,22.3
2023-06-29T09:38:01.316Z,22.6
2023-06-29T09:39:02.365Z,22.1
2023-06-29T09:40:02.232Z,21.9
2023-06-29T09:41:02.290Z,22
2023-06-29T09:42:02.195Z,22.7
2023-06-29T09:43:02.210Z,23
2023-06-29T09:44:02.118Z,23.1
2023-06-29T09:45:02.148Z,23.2
2023-06-29T09:46:02.006Z,23.3
2023-06-29T09:50:01.531Z,22.6
2023-06-29T09:51:01.826Z,22.2
2023-06-29T09:52:01.350Z,22.1
2023-06-29T09:53:01.430Z,22.7
2023-06-29T09:54:02.391Z,23.3
2023-06-29T09:55:02.248Z,23
2023-06-29T09:56:02.325Z,22.3
2023-06-29T09:57:02.198Z,22.8
2023-06-29T09:58:02.211Z,22.9
2023-06-29T09:59:02.108Z,23.6
2023-06-29T10:00:03.639Z,23.7
2023-06-29T10:01:01.711Z,23.2
2023-06-29T10:02:02.022Z,23
2023-06-29T10:03:02.039Z,22.4
2023-06-29T10:04:02.270Z,22.6
2023-06-29T10:05:02.182Z,22.2
2023-06-29T10:06:02.158Z,22.4
2023-06-29T10:07:02.145Z,22.7
2023-06-29T10:08:02.132Z,22.3
2023-06-29T10:09:01.961Z,22.1
2023-06-29T10:10:01.912Z,22.2
2023-06-29T10:11:03.363Z,22.5
2023-06-29T10:12:01.716Z,23.2
2023-06-29T10:13:02.052Z,23.4
2023-06-29T10:14:02.129Z,24
2023-06-29T10:15:01.963Z,24.2
2023-06-29T10:16:01.903Z,24.3
2023-06-29T10:17:01.890Z,23.7
2023-06-29T10:18:02.030Z,23.6
2023-06-29T10:19:01.859Z,23.6
2023-06-29T10:20:01.822Z,23.4
2023-06-29T10:21:01.865Z,23.6
2023-06-29T10:22:01.728Z,23.3
2023-06-29T10:23:01.776Z,23
2023-06-29T10:24:01.956Z,23
2023-06-29T10:25:01.678Z,23.1
2023-06-29T10:26:01.748Z,23.2
2023-06-29T10:27:01.589Z,23.2
2023-06-29T10:28:01.655Z,23.2
2023-06-29T10:29:01.477Z,23.1
2023-06-29T10:30:01.509Z,22.9
2023-06-29T10:31:01.421Z,23.8
2023-06-29T10:32:01.564Z,24.1
2023-06-29T10:33:01.633Z,24
2023-06-29T10:34:01.420Z,23.9
2023-06-29T10:35:01.460Z,24
2023-06-29T10:36:01.416Z,23.8
2023-06-29T10:37:02.370Z,23.6
2023-06-29T10:38:02.683Z,23.6
2023-06-29T10:39:01.388Z,23.1
2023-06-29T10:40:01.266Z,23
2023-06-29T10:41:02.339Z,22.9
2023-06-29T10:42:02.177Z,23.2
2023-06-29T10:43:02.233Z,23.1
2023-06-29T10:44:02.085Z,23.2
2023-06-29T10:45:02.161Z,23.8
2023-06-29T10:46:02.061Z,24.1
2023-06-29T10:47:01.744Z,24.5
2023-06-29T10:48:01.935Z,24.9
2023-06-29T10:49:01.733Z,24.6
2023-06-29T10:50:01.731Z,24.7
2023-06-29T10:51:01.562Z,24.8
2023-06-29T10:52:01.585Z,24.8
2023-06-29T10:53:01.417Z,24.7
2023-06-29T10:54:01.375Z,24.5
2023-06-29T10:55:02.369Z,24.4
2023-06-29T10:56:02.172Z,24.3
2023-06-29T10:57:02.251Z,24.3
2023-06-29T10:58:02.243Z,24.1
2023-06-29T10:59:02.316Z,24.1
2023-06-29T11:00:02.319Z,24.1
2023-06-29T11:01:01.372Z,23.9
2023-06-29T11:02:01.803Z,23.6
2023-06-29T11:03:01.858Z,23.8
2023-06-29T11:04:01.863Z,23.8
2023-06-29T11:05:01.897Z,23.8
2023-06-29T11:06:01.869Z,24.3
2023-06-29T11:07:01.925Z,24.6
2023-06-29T11:08:01.711Z,24.7
2023-06-29T11:09:01.774Z,24.4
2023-06-29T11:10:01.636Z,24.5
2023-06-29T11:11:01.699Z,24.9
2023-06-29T11:12:01.563Z,25.2
2023-06-29T11:13:01.548Z,25.3
2023-06-29T11:14:01.393Z,25.1
2023-06-29T11:15:18.722Z,24.6
2023-06-29T11:16:02.386Z,24.9
2023-06-29T11:17:02.410Z,25.2
2023-06-29T11:18:02.389Z,25.5
2023-06-29T11:19:01.310Z,25.8
2023-06-29T11:20:01.336Z,25.7
2023-06-29T11:21:02.277Z,26.1
2023-06-29T11:22:02.122Z,26.3
2023-06-29T11:23:02.208Z,26.1
2023-06-29T11:24:02.017Z,26.4
2023-06-29T11:25:04.409Z,26.4
2023-06-29T11:26:02.259Z,26
2023-06-29T11:27:02.161Z,25.5
2023-06-29T11:28:02.186Z,25.9
2023-06-29T11:29:02.062Z,26.4
2023-06-29T11:30:02.113Z,26.6
2023-06-29T11:31:01.997Z,26.1
2023-06-29T11:32:02.126Z,25.8
2023-06-29T11:33:02.205Z,26.3
2023-06-29T11:34:01.566Z,26.3
2023-06-29T11:35:01.526Z,25.9
2023-06-29T11:36:01.616Z,26.3
2023-06-29T11:37:14.569Z,26.6
2023-06-29T11:38:02.079Z,26.2
2023-06-29T11:39:02.030Z,26.4
2023-06-29T11:40:01.922Z,26.9
2023-06-29T11:41:01.886Z,27
2023-06-29T11:42:01.939Z,27
2023-06-29T11:43:01.820Z,26.7
2023-06-29T11:44:02.268Z,26.8
2023-06-29T11:45:02.234Z,27.2
2023-06-29T11:46:02.114Z,27.1
2023-06-29T11:47:12.385Z,27
2023-06-29T11:48:01.410Z,26.3
2023-06-29T11:49:01.766Z,26.7
2023-06-29T11:50:01.499Z,26.1
2023-06-29T11:51:01.703Z,26.1
2023-06-29T11:52:01.722Z,26.4
2023-06-29T11:53:01.790Z,26.3
2023-06-29T11:54:01.633Z,26.1
2023-06-29T11:55:01.641Z,25.9
2023-06-29T11:56:01.633Z,25.4
2023-06-29T11:57:01.474Z,25.6
2023-06-29T11:58:01.375Z,25.6
2023-06-29T11:59:01.378Z,25.5
2023-06-29T12:00:02.780Z,25.5
2023-06-29T12:01:01.704Z,25.4
2023-06-29T12:02:01.404Z,25
2023-06-29T12:03:01.484Z,25
2023-06-29T12:04:01.500Z,24.9
2023-06-29T12:05:01.559Z,25
2023-06-29T12:06:01.583Z,24.2
2023-06-29T12:07:01.610Z,24.1
2023-06-29T12:08:01.568Z,24.5
2023-06-29T12:09:01.917Z,24.4
2023-06-29T12:10:01.883Z,24.5
2023-06-29T12:11:01.693Z,24.5
2023-06-29T12:12:01.673Z,24.4
2023-06-29T12:13:01.550Z,24.5
2023-06-29T12:14:01.553Z,24.6
2023-06-29T12:15:01.442Z,24.7
2023-06-29T12:18:01.944Z,25.1
2023-06-29T12:19:01.847Z,25.2
2023-06-29T12:20:10.104Z,24.9
2023-06-29T12:21:02.167Z,24.9
2023-06-29T12:22:01.623Z,25.2
2023-06-29T12:23:02.061Z,25.6
2023-06-29T12:24:02.062Z,25.5
2023-06-29T12:25:02.056Z,25.6
2023-06-29T12:26:01.925Z,26.4
2023-06-29T12:27:01.887Z,26.6
2023-06-29T12:28:01.942Z,26.5
2023-06-29T12:29:01.805Z,26.5
2023-06-29T12:30:01.817Z,26.7
2023-06-29T12:31:01.785Z,26.7
2023-06-29T12:32:01.586Z,27.1
2023-06-29T12:33:01.608Z,26.6
2023-06-29T12:34:01.489Z,27.2
2023-06-29T12:35:01.497Z,27.3
2023-06-29T12:36:01.323Z,26.9
2023-06-29T12:37:01.358Z,25.8
2023-06-29T12:38:02.349Z,25.8
2023-06-29T12:39:02.198Z,26.6
2023-06-29T12:40:02.272Z,27.2
2023-06-29T12:41:02.128Z,27.4
2023-06-29T12:42:02.135Z,26.8
2023-06-29T12:43:02.049Z,27.2
2023-06-29T12:44:02.136Z,27.5
2023-06-29T12:45:01.997Z,27.4
2023-06-29T12:46:02.217Z,27.2
2023-06-29T12:47:02.067Z,27.4
2023-06-29T12:48:02.046Z,27.1
2023-06-29T12:49:01.894Z,26.9
2023-06-29T12:50:01.857Z,26.8
2023-06-29T12:51:01.929Z,26.9
2023-06-29T12:52:01.795Z,26.9
2023-06-29T12:53:01.747Z,26.5
2023-06-29T12:54:01.811Z,25.9
2023-06-29T12:55:01.668Z,25.7
2023-06-29T12:56:01.666Z,25.9
2023-06-29T12:57:01.588Z,26.6
2023-06-29T12:58:01.486Z,27.1
2023-06-29T12:59:01.372Z,27.3
2023-06-29T13:00:03.580Z,27.5
2023-06-29T13:01:01.574Z,27.1
2023-06-29T13:02:01.827Z,26.9
2023-06-29T13:03:02.013Z,26.7
2023-06-29T13:04:02.156Z,27.1
2023-06-29T13:05:02.209Z,27.2
2023-06-29T13:06:02.278Z,27.4
2023-06-29T13:07:02.143Z,27.7
2023-06-29T13:08:02.183Z,27.9
2023-06-29T13:09:02.053Z,27.5
2023-06-29T13:10:02.121Z,27.6
2023-06-29T13:11:01.966Z,27.9
2023-06-29T13:12:01.943Z,27.5
2023-06-29T13:13:01.979Z,27.1
2023-06-29T13:14:01.996Z,27.1
2023-06-29T13:15:01.910Z,27.4
2023-06-29T13:16:01.979Z,27.4
2023-06-29T13:17:02.044Z,27.7
2023-06-29T13:18:01.997Z,27.6
2023-06-29T13:19:01.929Z,27.6
2023-06-29T13:20:01.847Z,27.9
2023-06-29T13:21:01.799Z,28.1
2023-06-29T13:22:01.801Z,28
2023-06-29T13:23:01.625Z,27.5
2023-06-29T13:24:01.668Z,27.6
2023-06-29T13:25:01.672Z,28.1
2023-06-29T13:26:01.481Z,28.3
2023-06-29T13:27:01.351Z,28.3
2023-06-29T13:28:01.361Z,27.7
2023-06-29T13:29:01.283Z,27.3
2023-06-29T13:30:02.346Z,27.3
2023-06-29T13:31:02.306Z,27
2023-06-29T13:32:01.338Z,26.7
2023-06-29T13:33:01.426Z,26.9
2023-06-29T13:34:01.291Z,27.3
2023-06-29T13:35:03.119Z,27
2023-06-29T13:36:01.843Z,26.9